sensor_id;sensor_type;location;lat;lon;timestamp;pressure;altitude;pressure_sealevel;temperature;humidity
57943;BME280;53626;51.224;-0.164;2022-07-23T00:00:06;101178.90;;;22.47;49.76
57943;BME280;53626;51.224;-0.164;2022-07-23T00:02:35;101178.05;;;22.67;49.80
57943;BME280;53626;51.224;-0.164;2022-07-23T00:05:03;101176.30;;;22.20;49.76
57943;BME280;53626;51.224;-0.164;2022-07-23T00:07:30;101171.11;;;22.81;49.52
57943;BME280;53626;51.224;-0.164;2022-07-23T00:09:58;101172.00;;;22.49;49.67
57943;BME280;53626;51.224;-0.164;2022-07-23T00:12:25;101177.19;;;22.65;49.73
57943;BME280;53626;51.224;-0.164;2022-07-23T00:14:52;101179.09;;;22.38;49.85
57943;BME280;53626;51.224;-0.164;2022-07-23T00:17:20;101180.87;;;22.60;49.86
57943;BME280;53626;51.224;-0.164;2022-07-23T00:19:47;101186.58;;;22.42;49.74
57943;BME280;53626;51.224;-0.164;2022-07-23T00:22:14;101189.60;;;22.61;49.83
57943;BME280;53626;51.224;-0.164;2022-07-23T00:24:42;101189.12;;;22.14;49.75
57943;BME280;53626;51.224;-0.164;2022-07-23T00:27:09;101184.22;;;22.34;49.85
57943;BME280;53626;51.224;-0.164;2022-07-23T00:29:36;101187.86;;;22.58;49.84
57943;BME280;53626;51.224;-0.164;2022-07-23T00:32:04;101187.97;;;22.53;49.95
57943;BME280;53626;51.224;-0.164;2022-07-23T00:34:32;101188.15;;;22.55;49.93
57943;BME280;53626;51.224;-0.164;2022-07-23T00:36:59;101181.40;;;22.29;49.98
57943;BME280;53626;51.224;-0.164;2022-07-23T00:39:26;101181.63;;;22.52;50.04
57943;BME280;53626;51.224;-0.164;2022-07-23T00:41:54;101180.51;;;22.54;49.96
57943;BME280;53626;51.224;-0.164;2022-07-23T00:44:22;101180.02;;;22.06;50.03
57943;BME280;53626;51.224;-0.164;2022-07-23T00:46:52;101177.17;;;22.55;49.95
57943;BME280;53626;51.224;-0.164;2022-07-23T00:49:21;101176.52;;;22.52;50.00
57943;BME280;53626;51.224;-0.164;2022-07-23T00:51:49;101173.99;;;22.45;50.09
57943;BME280;53626;51.224;-0.164;2022-07-23T00:54:17;101170.47;;;22.26;50.04
57943;BME280;53626;51.224;-0.164;2022-07-23T00:56:45;101170.89;;;21.96;50.05
57943;BME280;53626;51.224;-0.164;2022-07-23T00:59:13;101168.80;;;22.46;50.09
57943;BME280;53626;51.224;-0.164;2022-07-23T01:01:41;101165.76;;;22.41;50.12
57943;BME280;53626;51.224;-0.164;2022-07-23T01:04:09;101169.97;;;22.40;50.18
57943;BME280;53626;51.224;-0.164;2022-07-23T01:06:38;101172.46;;;22.40;50.20
57943;BME280;53626;51.224;-0.164;2022-07-23T01:09:06;101168.66;;;22.40;50.19
57943;BME280;53626;51.224;-0.164;2022-07-23T01:11:34;101163.74;;;22.45;50.11
57943;BME280;53626;51.224;-0.164;2022-07-23T01:14:09;101156.92;;;22.44;50.10
57943;BME280;53626;51.224;-0.164;2022-07-23T01:16:36;101161.25;;;22.39;50.20
57943;BME280;53626;51.224;-0.164;2022-07-23T01:19:04;101163.41;;;22.43;50.13
57943;BME280;53626;51.224;-0.164;2022-07-23T01:21:31;101162.22;;;22.43;50.14
57943;BME280;53626;51.224;-0.164;2022-07-23T01:23:59;101161.83;;;22.16;50.21
57943;BME280;53626;51.224;-0.164;2022-07-23T01:26:27;101162.91;;;21.91;50.18
57943;BME280;53626;51.224;-0.164;2022-07-23T01:28:54;101163.89;;;22.14;50.20
57943;BME280;53626;51.224;-0.164;2022-07-23T01:31:22;101163.41;;;22.42;50.12
57943;BME280;53626;51.224;-0.164;2022-07-23T01:33:49;101161.34;;;22.42;50.13
57943;BME280;53626;51.224;-0.164;2022-07-23T01:36:16;101164.79;;;22.18;50.16
57943;BME280;53626;51.224;-0.164;2022-07-23T01:38:44;101163.83;;;22.15;50.21
57943;BME280;53626;51.224;-0.164;2022-07-23T01:41:11;101165.42;;;21.94;50.09
57943;BME280;53626;51.224;-0.164;2022-07-23T01:43:39;101167.62;;;22.37;50.17
57943;BME280;53626;51.224;-0.164;2022-07-23T01:46:06;101169.19;;;22.36;50.21
57943;BME280;53626;51.224;-0.164;2022-07-23T01:48:33;101170.85;;;22.35;50.24
57943;BME280;53626;51.224;-0.164;2022-07-23T01:51:01;101171.22;;;22.35;50.20
57943;BME280;53626;51.224;-0.164;2022-07-23T01:53:28;101169.42;;;22.31;50.29
57943;BME280;53626;51.224;-0.164;2022-07-23T01:55:56;101165.06;;;22.12;50.20
57943;BME280;53626;51.224;-0.164;2022-07-23T01:58:23;101164.21;;;22.15;50.08
57943;BME280;53626;51.224;-0.164;2022-07-23T02:00:51;101163.49;;;22.11;50.14
57943;BME280;53626;51.224;-0.164;2022-07-23T02:03:18;101166.56;;;22.27;50.24
57943;BME280;53626;51.224;-0.164;2022-07-23T02:05:45;101169.68;;;22.02;50.30
57943;BME280;53626;51.224;-0.164;2022-07-23T02:08:12;101167.23;;;22.13;50.08
57943;BME280;53626;51.224;-0.164;2022-07-23T02:10:40;101169.49;;;22.31;50.15
57943;BME280;53626;51.224;-0.164;2022-07-23T02:13:07;101169.07;;;21.82;50.07
57943;BME280;53626;51.224;-0.164;2022-07-23T02:15:35;101171.34;;;22.05;50.15
57943;BME280;53626;51.224;-0.164;2022-07-23T02:18:02;101172.06;;;22.12;49.98
57943;BME280;53626;51.224;-0.164;2022-07-23T02:20:30;101171.37;;;22.08;50.00
57943;BME280;53626;51.224;-0.164;2022-07-23T02:22:57;101175.61;;;22.32;49.97
57943;BME280;53626;51.224;-0.164;2022-07-23T02:25:25;101182.04;;;22.33;49.93
57943;BME280;53626;51.224;-0.164;2022-07-23T02:27:52;101181.92;;;22.29;49.97
57943;BME280;53626;51.224;-0.164;2022-07-23T02:30:20;101182.64;;;22.25;49.99
57943;BME280;53626;51.224;-0.164;2022-07-23T02:32:47;101182.64;;;22.06;49.97
57943;BME280;53626;51.224;-0.164;2022-07-23T02:35:14;101183.58;;;22.25;50.07
57943;BME280;53626;51.224;-0.164;2022-07-23T02:37:42;101179.70;;;21.69;50.19
57943;BME280;53626;51.224;-0.164;2022-07-23T02:40:10;101179.46;;;22.22;50.08
57943;BME280;53626;51.224;-0.164;2022-07-23T02:42:38;101181.06;;;22.29;49.90
57943;BME280;53626;51.224;-0.164;2022-07-23T02:45:06;101179.52;;;22.21;50.15
57943;BME280;53626;51.224;-0.164;2022-07-23T02:47:33;101178.72;;;21.92;50.24
57943;BME280;53626;51.224;-0.164;2022-07-23T02:50:01;101176.11;;;22.16;50.24
57943;BME280;53626;51.224;-0.164;2022-07-23T02:52:28;101179.45;;;21.92;50.21
57943;BME280;53626;51.224;-0.164;2022-07-23T02:54:55;101180.15;;;22.19;50.10
57943;BME280;53626;51.224;-0.164;2022-07-23T02:57:23;101181.07;;;22.13;50.23
57943;BME280;53626;51.224;-0.164;2022-07-23T02:59:51;101180.20;;;22.13;50.20
57943;BME280;53626;51.224;-0.164;2022-07-23T03:02:18;101177.30;;;22.17;50.06
57943;BME280;53626;51.224;-0.164;2022-07-23T03:04:45;101178.15;;;22.15;50.05
57943;BME280;53626;51.224;-0.164;2022-07-23T03:07:12;101178.49;;;22.21;49.91
57943;BME280;53626;51.224;-0.164;2022-07-23T03:09:40;101177.88;;;21.93;49.99
57943;BME280;53626;51.224;-0.164;2022-07-23T03:12:08;101178.90;;;22.11;50.10
57943;BME280;53626;51.224;-0.164;2022-07-23T03:14:36;101174.77;;;22.10;50.09
57943;BME280;53626;51.224;-0.164;2022-07-23T03:17:03;101177.19;;;22.10;50.08
57943;BME280;53626;51.224;-0.164;2022-07-23T03:19:30;101179.09;;;21.95;49.97
57943;BME280;53626;51.224;-0.164;2022-07-23T03:21:58;101178.64;;;22.38;49.96
57943;BME280;53626;51.224;-0.164;2022-07-23T03:24:25;101180.69;;;22.14;50.00
57943;BME280;53626;51.224;-0.164;2022-07-23T03:26:53;101178.86;;;22.33;50.04
57943;BME280;53626;51.224;-0.164;2022-07-23T03:29:20;101175.80;;;22.13;49.95
57943;BME280;53626;51.224;-0.164;2022-07-23T03:31:47;101174.03;;;22.32;50.04
57943;BME280;53626;51.224;-0.164;2022-07-23T03:34:15;101173.81;;;22.06;50.12
57943;BME280;53626;51.224;-0.164;2022-07-23T03:36:42;101169.74;;;22.06;50.09
57943;BME280;53626;51.224;-0.164;2022-07-23T03:39:10;101166.17;;;22.03;50.16
57943;BME280;53626;51.224;-0.164;2022-07-23T03:41:37;101163.76;;;22.06;49.99
57943;BME280;53626;51.224;-0.164;2022-07-23T03:44:04;101165.92;;;22.10;49.92
57943;BME280;53626;51.224;-0.164;2022-07-23T03:46:32;101165.73;;;22.09;49.90
57943;BME280;53626;51.224;-0.164;2022-07-23T03:48:59;101164.44;;;21.97;50.08
57943;BME280;53626;51.224;-0.164;2022-07-23T03:51:26;101166.35;;;22.06;49.92
57943;BME280;53626;51.224;-0.164;2022-07-23T03:53:54;101164.99;;;21.99;49.96
57943;BME280;53626;51.224;-0.164;2022-07-23T03:56:21;101164.55;;;22.32;49.80
57943;BME280;53626;51.224;-0.164;2022-07-23T03:58:49;101164.05;;;22.23;49.93
57943;BME280;53626;51.224;-0.164;2022-07-23T04:01:16;101165.45;;;21.98;49.95
57943;BME280;53626;51.224;-0.164;2022-07-23T04:03:43;101165.82;;;21.98;49.89
57943;BME280;53626;51.224;-0.164;2022-07-23T04:06:10;101162.42;;;21.95;49.98
57943;BME280;53626;51.224;-0.164;2022-07-23T04:08:38;101164.49;;;21.79;49.77
57943;BME280;53626;51.224;-0.164;2022-07-23T04:11:06;101160.62;;;21.95;49.90
57943;BME280;53626;51.224;-0.164;2022-07-23T04:13:33;101161.55;;;22.19;49.84
57943;BME280;53626;51.224;-0.164;2022-07-23T04:16:01;101161.13;;;21.65;49.96
57943;BME280;53626;51.224;-0.164;2022-07-23T04:18:28;101161.11;;;22.22;49.71
57943;BME280;53626;51.224;-0.164;2022-07-23T04:20:56;101163.94;;;21.98;49.72
57943;BME280;53626;51.224;-0.164;2022-07-23T04:23:23;101163.08;;;21.98;49.67
57943;BME280;53626;51.224;-0.164;2022-07-23T04:25:51;101164.64;;;21.93;49.74
57943;BME280;53626;51.224;-0.164;2022-07-23T04:28:18;101165.07;;;21.93;49.69
57943;BME280;53626;51.224;-0.164;2022-07-23T04:30:45;101165.95;;;22.15;49.65
57943;BME280;53626;51.224;-0.164;2022-07-23T04:33:13;101166.04;;;21.90;49.65
57943;BME280;53626;51.224;-0.164;2022-07-23T04:35:40;101167.11;;;21.42;49.68
57943;BME280;53626;51.224;-0.164;2022-07-23T04:38:07;101169.30;;;21.88;49.75
57943;BME280;53626;51.224;-0.164;2022-07-23T04:40:34;101173.67;;;22.12;49.62
57943;BME280;53626;51.224;-0.164;2022-07-23T04:43:02;101175.02;;;22.12;49.60
57943;BME280;53626;51.224;-0.164;2022-07-23T04:45:30;101178.39;;;21.92;49.50
57943;BME280;53626;51.224;-0.164;2022-07-23T04:47:57;101177.04;;;22.10;49.60
57943;BME280;53626;51.224;-0.164;2022-07-23T04:50:25;101173.57;;;21.86;49.58
57943;BME280;53626;51.224;-0.164;2022-07-23T04:52:52;101171.14;;;21.86;49.56
57943;BME280;53626;51.224;-0.164;2022-07-23T04:55:19;101169.30;;;22.09;49.53
57943;BME280;53626;51.224;-0.164;2022-07-23T04:57:46;101169.10;;;22.04;49.52
57943;BME280;53626;51.224;-0.164;2022-07-23T05:00:15;101168.40;;;21.98;49.24
57943;BME280;53626;51.224;-0.164;2022-07-23T05:02:42;101169.31;;;21.82;49.56
57943;BME280;53626;51.224;-0.164;2022-07-23T05:05:10;101165.67;;;21.80;49.58
57943;BME280;53626;51.224;-0.164;2022-07-23T05:07:37;101170.05;;;21.85;49.46
57943;BME280;53626;51.224;-0.164;2022-07-23T05:10:05;101176.25;;;21.76;49.62
57943;BME280;53626;51.224;-0.164;2022-07-23T05:12:33;101183.08;;;21.83;49.46
57943;BME280;53626;51.224;-0.164;2022-07-23T05:15:00;101184.19;;;22.01;49.49
57943;BME280;53626;51.224;-0.164;2022-07-23T05:17:28;101185.57;;;22.02;49.49
57943;BME280;53626;51.224;-0.164;2022-07-23T05:19:55;101185.96;;;21.86;49.43
57943;BME280;53626;51.224;-0.164;2022-07-23T05:22:23;101188.11;;;21.57;49.53
57943;BME280;53626;51.224;-0.164;2022-07-23T05:24:50;101190.50;;;22.09;49.40
57943;BME280;53626;51.224;-0.164;2022-07-23T05:27:17;101190.94;;;22.15;49.30
57943;BME280;53626;51.224;-0.164;2022-07-23T05:29:45;101193.95;;;21.60;49.44
57943;BME280;53626;51.224;-0.164;2022-07-23T05:32:12;101194.51;;;21.79;49.56
57943;BME280;53626;51.224;-0.164;2022-07-23T05:34:39;101195.02;;;21.77;49.61
57943;BME280;53626;51.224;-0.164;2022-07-23T05:37:07;101194.47;;;21.61;49.46
57943;BME280;53626;51.224;-0.164;2022-07-23T05:39:34;101190.88;;;21.99;49.65
57943;BME280;53626;51.224;-0.164;2022-07-23T05:42:02;101189.82;;;21.89;49.37
57943;BME280;53626;51.224;-0.164;2022-07-23T05:44:29;101188.75;;;22.08;49.48
57943;BME280;53626;51.224;-0.164;2022-07-23T05:46:57;101188.77;;;22.09;49.48
57943;BME280;53626;51.224;-0.164;2022-07-23T05:49:24;101186.24;;;21.87;49.46
57943;BME280;53626;51.224;-0.164;2022-07-23T05:51:51;101187.49;;;21.72;49.31
57943;BME280;53626;51.224;-0.164;2022-07-23T05:54:19;101190.27;;;22.10;49.52
57943;BME280;53626;51.224;-0.164;2022-07-23T05:56:46;101192.59;;;21.78;49.70
57943;BME280;53626;51.224;-0.164;2022-07-23T05:59:14;101187.19;;;21.79;49.66
57943;BME280;53626;51.224;-0.164;2022-07-23T06:01:41;101187.32;;;21.80;49.65
57943;BME280;53626;51.224;-0.164;2022-07-23T06:04:09;101184.40;;;21.74;49.79
57943;BME280;53626;51.224;-0.164;2022-07-23T06:06:41;101184.00;;;21.99;49.79
57943;BME280;53626;51.224;-0.164;2022-07-23T06:09:08;101184.64;;;21.98;49.72
57943;BME280;53626;51.224;-0.164;2022-07-23T06:11:36;101182.87;;;21.78;49.73
57943;BME280;53626;51.224;-0.164;2022-07-23T06:14:03;101180.70;;;22.01;49.75
57943;BME280;53626;51.224;-0.164;2022-07-23T06:16:31;101177.05;;;21.72;49.87
57943;BME280;53626;51.224;-0.164;2022-07-23T06:18:58;101179.59;;;21.80;49.77
57943;BME280;53626;51.224;-0.164;2022-07-23T06:21:25;101178.80;;;21.80;49.79
57943;BME280;53626;51.224;-0.164;2022-07-23T06:23:53;101174.66;;;21.78;49.85
57943;BME280;53626;51.224;-0.164;2022-07-23T06:26:21;101170.77;;;21.53;49.91
57943;BME280;53626;51.224;-0.164;2022-07-23T06:28:48;101175.56;;;22.05;49.75
57943;BME280;53626;51.224;-0.164;2022-07-23T06:31:15;101183.75;;;21.78;49.90
57943;BME280;53626;51.224;-0.164;2022-07-23T06:33:42;101184.43;;;22.03;49.92
57943;BME280;53626;51.224;-0.164;2022-07-23T06:36:10;101183.46;;;22.03;49.84
57943;BME280;53626;51.224;-0.164;2022-07-23T06:38:38;101184.47;;;21.61;49.81
57943;BME280;53626;51.224;-0.164;2022-07-23T06:41:05;101188.94;;;22.12;49.73
57943;BME280;53626;51.224;-0.164;2022-07-23T06:43:32;101188.08;;;21.93;49.68
57943;BME280;53626;51.224;-0.164;2022-07-23T06:46:00;101189.76;;;21.79;49.98
57943;BME280;53626;51.224;-0.164;2022-07-23T06:48:27;101192.67;;;22.04;49.96
57943;BME280;53626;51.224;-0.164;2022-07-23T06:50:55;101192.04;;;21.84;49.88
57943;BME280;53626;51.224;-0.164;2022-07-23T06:53:22;101196.48;;;21.85;49.95
57943;BME280;53626;51.224;-0.164;2022-07-23T06:55:49;101198.50;;;22.03;50.03
57943;BME280;53626;51.224;-0.164;2022-07-23T06:58:17;101196.09;;;22.09;49.90
57943;BME280;53626;51.224;-0.164;2022-07-23T07:00:44;101194.63;;;21.81;50.04
57943;BME280;53626;51.224;-0.164;2022-07-23T07:03:12;101193.49;;;21.88;49.92
57943;BME280;53626;51.224;-0.164;2022-07-23T07:05:39;101195.62;;;22.07;50.03
57943;BME280;53626;51.224;-0.164;2022-07-23T07:08:06;101196.76;;;21.84;50.01
57943;BME280;53626;51.224;-0.164;2022-07-23T07:10:33;101204.67;;;21.89;50.00
57943;BME280;53626;51.224;-0.164;2022-07-23T07:13:01;101203.76;;;21.84;50.05
57943;BME280;53626;51.224;-0.164;2022-07-23T07:15:28;101202.07;;;21.88;49.98
57943;BME280;53626;51.224;-0.164;2022-07-23T07:17:56;101193.82;;;21.65;50.03
57943;BME280;53626;51.224;-0.164;2022-07-23T07:20:23;101194.23;;;21.66;50.05
57943;BME280;53626;51.224;-0.164;2022-07-23T07:22:51;101195.88;;;21.89;50.07
57943;BME280;53626;51.224;-0.164;2022-07-23T07:25:18;101193.67;;;21.88;50.07
57943;BME280;53626;51.224;-0.164;2022-07-23T07:27:45;101201.64;;;21.88;50.10
57943;BME280;53626;51.224;-0.164;2022-07-23T07:30:13;101203.05;;;21.94;50.01
57943;BME280;53626;51.224;-0.164;2022-07-23T07:32:42;101203.88;;;22.07;50.15
57943;BME280;53626;51.224;-0.164;2022-07-23T07:35:09;101204.98;;;21.95;50.05
57943;BME280;53626;51.224;-0.164;2022-07-23T07:37:37;101202.65;;;21.70;50.11
57943;BME280;53626;51.224;-0.164;2022-07-23T07:40:05;101200.08;;;21.93;50.26
57943;BME280;53626;51.224;-0.164;2022-07-23T07:42:32;101201.30;;;22.25;50.13
57943;BME280;53626;51.224;-0.164;2022-07-23T07:44:59;101201.04;;;22.01;50.13
57943;BME280;53626;51.224;-0.164;2022-07-23T07:47:27;101203.33;;;21.79;50.10
57943;BME280;53626;51.224;-0.164;2022-07-23T07:49:54;101202.22;;;21.95;50.28
57943;BME280;53626;51.224;-0.164;2022-07-23T07:52:22;101202.69;;;21.98;50.26
57943;BME280;53626;51.224;-0.164;2022-07-23T07:54:49;101202.17;;;22.18;50.28
57943;BME280;53626;51.224;-0.164;2022-07-23T07:57:16;101200.14;;;22.20;50.19
57943;BME280;53626;51.224;-0.164;2022-07-23T07:59:44;101199.19;;;21.95;50.29
57943;BME280;53626;51.224;-0.164;2022-07-23T08:02:11;101197.26;;;22.14;50.33
57943;BME280;53626;51.224;-0.164;2022-07-23T08:04:39;101200.90;;;21.96;50.23
57943;BME280;53626;51.224;-0.164;2022-07-23T08:07:06;101203.88;;;21.96;50.29
57943;BME280;53626;51.224;-0.164;2022-07-23T08:09:39;101205.03;;;22.02;50.14
57943;BME280;53626;51.224;-0.164;2022-07-23T08:12:07;101195.98;;;22.00;50.19
57943;BME280;53626;51.224;-0.164;2022-07-23T08:14:34;101195.91;;;22.04;50.08
57943;BME280;53626;51.224;-0.164;2022-07-23T08:17:02;101193.82;;;22.29;49.87
57943;BME280;53626;51.224;-0.164;2022-07-23T08:19:29;101193.22;;;22.29;50.02
57943;BME280;53626;51.224;-0.164;2022-07-23T08:21:57;101195.39;;;22.05;49.93
57943;BME280;53626;51.224;-0.164;2022-07-23T08:24:24;101204.69;;;22.12;49.79
57943;BME280;53626;51.224;-0.164;2022-07-23T08:26:51;101204.43;;;22.10;49.87
57943;BME280;53626;51.224;-0.164;2022-07-23T08:29:19;101212.01;;;22.14;49.55
57943;BME280;53626;51.224;-0.164;2022-07-23T08:31:46;101210.53;;;22.15;49.41
57943;BME280;53626;51.224;-0.164;2022-07-23T08:34:14;101208.41;;;22.41;49.21
57943;BME280;53626;51.224;-0.164;2022-07-23T08:36:42;101212.38;;;21.90;49.35
57943;BME280;53626;51.224;-0.164;2022-07-23T08:39:09;101213.47;;;22.15;49.33
57943;BME280;53626;51.224;-0.164;2022-07-23T08:41:36;101213.71;;;22.45;49.08
57943;BME280;53626;51.224;-0.164;2022-07-23T08:44:07;101209.29;;;22.18;49.11
57943;BME280;53626;51.224;-0.164;2022-07-23T08:46:36;101207.07;;;21.95;49.09
57943;BME280;53626;51.224;-0.164;2022-07-23T08:49:03;101206.99;;;22.25;48.90
57943;BME280;53626;51.224;-0.164;2022-07-23T08:51:31;101199.91;;;22.47;48.94
57943;BME280;53626;51.224;-0.164;2022-07-23T08:53:58;101197.56;;;22.22;49.07
57943;BME280;53626;51.224;-0.164;2022-07-23T08:56:26;101198.74;;;22.25;48.88
57943;BME280;53626;51.224;-0.164;2022-07-23T08:58:54;101201.86;;;22.02;48.76
57943;BME280;53626;51.224;-0.164;2022-07-23T09:01:21;101196.42;;;22.27;48.61
57943;BME280;53626;51.224;-0.164;2022-07-23T09:03:48;101194.61;;;22.04;48.77
57943;BME280;53626;51.224;-0.164;2022-07-23T09:06:16;101193.87;;;22.46;47.97
57943;BME280;53626;51.224;-0.164;2022-07-23T09:08:44;101194.40;;;22.47;47.81
57943;BME280;53626;51.224;-0.164;2022-07-23T09:11:14;101194.23;;;22.32;47.87
57943;BME280;53626;51.224;-0.164;2022-07-23T09:13:46;101195.69;;;22.32;47.95
57943;BME280;53626;51.224;-0.164;2022-07-23T09:16:15;101195.18;;;22.31;47.49
57943;BME280;53626;51.224;-0.164;2022-07-23T09:18:45;101193.24;;;22.17;47.69
57943;BME280;53626;51.224;-0.164;2022-07-23T09:21:15;101194.25;;;22.37;47.48
57943;BME280;53626;51.224;-0.164;2022-07-23T09:23:44;101200.46;;;22.31;47.76
57943;BME280;53626;51.224;-0.164;2022-07-23T09:26:22;101203.72;;;22.38;47.68
57943;BME280;53626;51.224;-0.164;2022-07-23T09:28:53;101209.50;;;22.51;47.58
57943;BME280;53626;51.224;-0.164;2022-07-23T09:31:22;101212.92;;;22.58;47.58
57943;BME280;53626;51.224;-0.164;2022-07-23T09:33:50;101210.17;;;22.51;47.45
57943;BME280;53626;51.224;-0.164;2022-07-23T09:36:27;101213.68;;;22.27;47.57
57943;BME280;53626;51.224;-0.164;2022-07-23T09:38:54;101214.77;;;22.49;47.50
57943;BME280;53626;51.224;-0.164;2022-07-23T09:41:21;101219.69;;;22.60;47.17
57943;BME280;53626;51.224;-0.164;2022-07-23T09:43:54;101218.37;;;22.56;46.65
57943;BME280;53626;51.224;-0.164;2022-07-23T09:46:24;101213.44;;;22.50;47.15
57943;BME280;53626;51.224;-0.164;2022-07-23T09:48:52;101210.02;;;22.46;47.16
57943;BME280;53626;51.224;-0.164;2022-07-23T09:51:20;101208.50;;;22.47;47.20
57943;BME280;53626;51.224;-0.164;2022-07-23T09:53:48;101211.77;;;22.24;46.73
57943;BME280;53626;51.224;-0.164;2022-07-23T09:56:15;101214.05;;;22.50;46.71
57943;BME280;53626;51.224;-0.164;2022-07-23T09:58:44;101216.77;;;22.51;47.07
57943;BME280;53626;51.224;-0.164;2022-07-23T10:01:12;101212.09;;;22.44;47.22
57943;BME280;53626;51.224;-0.164;2022-07-23T10:03:41;101215.37;;;22.47;47.03
57943;BME280;53626;51.224;-0.164;2022-07-23T10:06:10;101210.59;;;22.50;47.09
57943;BME280;53626;51.224;-0.164;2022-07-23T10:08:41;101203.74;;;22.45;47.17
57943;BME280;53626;51.224;-0.164;2022-07-23T10:11:13;101202.05;;;22.00;47.00
57943;BME280;53626;51.224;-0.164;2022-07-23T10:13:42;101204.00;;;22.49;47.00
57943;BME280;53626;51.224;-0.164;2022-07-23T10:16:09;101200.57;;;22.41;46.85
57943;BME280;53626;51.224;-0.164;2022-07-23T10:18:37;101207.01;;;22.39;46.59
57943;BME280;53626;51.224;-0.164;2022-07-23T10:21:07;101209.62;;;22.55;46.74
57943;BME280;53626;51.224;-0.164;2022-07-23T10:23:42;101207.78;;;22.57;46.69
57943;BME280;53626;51.224;-0.164;2022-07-23T10:26:20;101206.27;;;22.09;46.62
57943;BME280;53626;51.224;-0.164;2022-07-23T10:29:01;101209.04;;;22.55;46.63
57943;BME280;53626;51.224;-0.164;2022-07-23T10:31:47;101202.79;;;22.37;46.68
57943;BME280;53626;51.224;-0.164;2022-07-23T10:34:24;101204.72;;;22.41;46.50
57943;BME280;53626;51.224;-0.164;2022-07-23T10:36:57;101198.15;;;22.11;46.41
57943;BME280;53626;51.224;-0.164;2022-07-23T10:39:30;101195.41;;;22.38;46.46
57943;BME280;53626;51.224;-0.164;2022-07-23T10:42:08;101196.98;;;22.66;46.31
57943;BME280;53626;51.224;-0.164;2022-07-23T10:44:39;101194.59;;;22.65;46.37
57943;BME280;53626;51.224;-0.164;2022-07-23T10:47:06;101193.58;;;22.60;46.49
57943;BME280;53626;51.224;-0.164;2022-07-23T10:49:34;101193.77;;;22.57;46.70
57943;BME280;53626;51.224;-0.164;2022-07-23T10:52:19;101190.84;;;22.39;46.35
57943;BME280;53626;51.224;-0.164;2022-07-23T10:54:48;101183.91;;;22.36;46.42
57943;BME280;53626;51.224;-0.164;2022-07-23T10:57:17;101183.04;;;22.38;46.47
57943;BME280;53626;51.224;-0.164;2022-07-23T11:00:22;101184.79;;;22.60;46.37
57943;BME280;53626;51.224;-0.164;2022-07-23T11:02:51;101177.15;;;22.59;46.34
57943;BME280;53626;51.224;-0.164;2022-07-23T11:05:20;101178.65;;;21.94;41.47
57943;BME280;53626;51.224;-0.164;2022-07-23T11:08:20;101180.74;;;22.52;40.70
57943;BME280;53626;51.224;-0.164;2022-07-23T11:10:50;101182.07;;;22.27;42.18
57943;BME280;53626;51.224;-0.164;2022-07-23T11:13:50;101187.17;;;22.61;41.14
57943;BME280;53626;51.224;-0.164;2022-07-23T11:16:21;101183.52;;;22.37;41.38
57943;BME280;53626;51.224;-0.164;2022-07-23T11:19:06;101175.57;;;22.20;40.94
57943;BME280;53626;51.224;-0.164;2022-07-23T11:21:44;101177.90;;;22.43;40.80
57943;BME280;53626;51.224;-0.164;2022-07-23T11:24:13;101182.97;;;22.75;40.54
57943;BME280;53626;51.224;-0.164;2022-07-23T11:26:47;101182.46;;;22.75;40.41
57943;BME280;53626;51.224;-0.164;2022-07-23T11:29:48;101181.99;;;22.66;40.42
57943;BME280;53626;51.224;-0.164;2022-07-23T11:32:27;101178.54;;;22.78;39.21
57943;BME280;53626;51.224;-0.164;2022-07-23T11:34:55;101170.17;;;22.47;39.74
57943;BME280;53626;51.224;-0.164;2022-07-23T11:37:34;101171.87;;;22.70;39.61
57943;BME280;53626;51.224;-0.164;2022-07-23T11:40:06;101173.31;;;22.05;40.02
57943;BME280;53626;51.224;-0.164;2022-07-23T11:42:35;101172.85;;;22.47;40.49
57943;BME280;53626;51.224;-0.164;2022-07-23T11:45:04;101161.35;;;22.62;39.41
57943;BME280;53626;51.224;-0.164;2022-07-23T11:47:32;101159.93;;;22.92;38.83
57943;BME280;53626;51.224;-0.164;2022-07-23T11:50:00;101172.12;;;22.60;39.72
57943;BME280;53626;51.224;-0.164;2022-07-23T11:52:29;101168.50;;;22.55;39.48
57943;BME280;53626;51.224;-0.164;2022-07-23T11:54:59;101167.77;;;22.69;39.06
57943;BME280;53626;51.224;-0.164;2022-07-23T11:57:28;101159.76;;;23.13;38.19
57943;BME280;53626;51.224;-0.164;2022-07-23T11:59:58;101160.42;;;22.77;38.58
57943;BME280;53626;51.224;-0.164;2022-07-23T12:02:27;101161.81;;;22.60;38.72
57943;BME280;53626;51.224;-0.164;2022-07-23T12:04:55;101155.69;;;22.43;37.48
57943;BME280;53626;51.224;-0.164;2022-07-23T12:07:25;101156.04;;;22.60;37.59
57943;BME280;53626;51.224;-0.164;2022-07-23T12:09:53;101161.57;;;22.69;37.55
57943;BME280;53626;51.224;-0.164;2022-07-23T12:12:21;101162.42;;;22.78;37.21
57943;BME280;53626;51.224;-0.164;2022-07-23T12:14:50;101157.98;;;22.94;37.26
57943;BME280;53626;51.224;-0.164;2022-07-23T12:17:19;101157.75;;;23.09;37.42
57943;BME280;53626;51.224;-0.164;2022-07-23T12:19:47;101164.45;;;23.47;39.31
57943;BME280;53626;51.224;-0.164;2022-07-23T12:22:14;101158.55;;;23.51;39.91
57943;BME280;53626;51.224;-0.164;2022-07-23T12:24:59;101156.94;;;23.75;40.35
57943;BME280;53626;51.224;-0.164;2022-07-23T12:27:27;101154.43;;;23.70;40.61
57943;BME280;53626;51.224;-0.164;2022-07-23T12:29:55;101150.72;;;23.66;40.66
57943;BME280;53626;51.224;-0.164;2022-07-23T12:32:24;101148.78;;;23.36;40.84
57943;BME280;53626;51.224;-0.164;2022-07-23T12:35:04;101148.79;;;23.58;40.90
57943;BME280;53626;51.224;-0.164;2022-07-23T12:37:33;101149.77;;;23.47;41.34
57943;BME280;53626;51.224;-0.164;2022-07-23T12:40:20;101146.46;;;22.92;41.49
57943;BME280;53626;51.224;-0.164;2022-07-23T12:42:48;101147.41;;;23.45;41.66
57943;BME280;53626;51.224;-0.164;2022-07-23T12:45:16;101148.95;;;23.50;41.75
57943;BME280;53626;51.224;-0.164;2022-07-23T12:48:03;101148.26;;;23.44;42.01